createdAt,value
2018-10-18T00:01:50.861Z,14.77
2018-10-18T00:04:19.156Z,16.43
2018-10-18T00:06:47.468Z,16.50
2018-10-18T00:09:15.788Z,14.83
2018-10-18T00:11:44.155Z,13.27
2018-10-18T00:14:12.601Z,13.73
2018-10-18T00:16:40.858Z,13.27
2018-10-18T00:19:09.343Z,14.43
2018-10-18T00:21:37.666Z,17.90
2018-10-18T00:24:06.070Z,16.70
2018-10-18T00:26:34.374Z,16.70
2018-10-18T00:29:02.737Z,16.40
2018-10-18T00:31:31.061Z,16.33
2018-10-18T00:33:59.406Z,15.60
2018-10-18T00:36:27.744Z,13.93
2018-10-18T00:38:56.098Z,15.50
2018-10-18T00:41:24.636Z,14.90
2018-10-18T00:43:52.955Z,16.20
2018-10-18T00:46:21.303Z,17.30
2018-10-18T00:48:49.640Z,16.00
2018-10-18T00:51:17.999Z,17.47
2018-10-18T00:53:46.299Z,16.90
2018-10-18T00:56:14.718Z,16.93
2018-10-18T00:58:43.045Z,15.33
2018-10-18T01:01:11.371Z,14.43
2018-10-18T01:03:39.786Z,14.97
2018-10-18T01:06:08.116Z,14.73
2018-10-18T01:08:36.490Z,15.73
2018-10-18T01:11:04.875Z,15.30
2018-10-18T01:13:33.227Z,15.80
2018-10-18T01:16:01.544Z,15.90
2018-10-18T01:18:29.931Z,14.73
2018-10-18T01:20:58.281Z,14.37
2018-10-18T01:23:26.594Z,14.60
2018-10-18T01:25:54.979Z,15.20
2018-10-18T01:28:23.296Z,15.90
2018-10-18T01:30:51.664Z,14.17
2018-10-18T01:33:20.008Z,13.17
2018-10-18T01:35:48.369Z,11.87
2018-10-18T01:38:16.794Z,13.57
2018-10-18T01:40:45.131Z,13.23
2018-10-18T01:43:13.449Z,14.10
2018-10-18T01:45:41.812Z,13.93
2018-10-18T01:48:10.490Z,14.67
2018-10-18T01:50:38.712Z,14.20
2018-10-18T01:53:07.608Z,14.97
2018-10-18T01:55:35.953Z,14.33
2018-10-18T01:58:04.356Z,14.70
2018-10-18T02:00:32.673Z,14.67
2018-10-18T02:03:01.128Z,14.03
2018-10-18T02:05:29.445Z,13.80
2018-10-18T02:07:57.780Z,13.63
2018-10-18T02:10:26.072Z,13.33
2018-10-18T02:12:54.390Z,13.67
2018-10-18T02:15:22.699Z,14.10
2018-10-18T02:17:51.050Z,14.33
2018-10-18T02:20:19.367Z,14.93
2018-10-18T02:22:47.756Z,14.43
2018-10-18T02:25:16.232Z,14.23
2018-10-18T02:27:44.617Z,14.73
2018-10-18T02:30:13.045Z,14.47
2018-10-18T02:32:41.341Z,15.27
2018-10-18T02:35:09.703Z,14.37
2018-10-18T02:37:37.988Z,15.50
2018-10-18T02:40:06.412Z,16.43
2018-10-18T02:42:34.704Z,18.33
2018-10-18T02:45:03.140Z,18.83
2018-10-18T02:47:31.567Z,18.70
2018-10-18T02:49:59.902Z,18.20
2018-10-18T02:52:28.300Z,19.43
2018-10-18T02:54:56.612Z,18.80
2018-10-18T02:57:24.914Z,21.20
2018-10-18T02:59:53.351Z,27.07
2018-10-18T03:02:21.677Z,25.63
2018-10-18T03:04:50.040Z,22.43
2018-10-18T03:07:18.336Z,20.93
2018-10-18T03:09:46.707Z,21.63
2018-10-18T03:12:15.048Z,22.07
2018-10-18T03:14:43.555Z,22.00
2018-10-18T03:17:11.868Z,21.13
2018-10-18T03:19:40.245Z,20.63
2018-10-18T03:22:08.541Z,20.10
2018-10-18T03:24:36.896Z,20.80
2018-10-18T03:27:05.831Z,20.20
2018-10-18T03:29:34.155Z,20.70
2018-10-18T03:32:02.489Z,20.10
2018-10-18T03:34:30.810Z,19.43
2018-10-18T03:36:59.127Z,20.10
2018-10-18T03:39:27.479Z,18.97
2018-10-18T03:41:55.767Z,21.17
2018-10-18T03:44:24.183Z,19.47
2018-10-18T03:46:52.541Z,20.03
2018-10-18T03:49:20.943Z,20.33
2018-10-18T03:51:49.352Z,20.40
2018-10-18T03:54:17.729Z,20.97
2018-10-18T03:56:46.231Z,22.53
2018-10-18T03:59:14.568Z,25.13
2018-10-18T04:01:42.898Z,41.63
2018-10-18T04:04:11.227Z,42.17
2018-10-18T04:06:39.536Z,40.97
2018-10-18T04:09:09.157Z,52.93
2018-10-18T04:11:37.522Z,72.83
2018-10-18T04:14:06.103Z,82.93
2018-10-18T04:16:34.563Z,65.03
2018-10-18T04:19:02.944Z,58.80
2018-10-18T04:21:31.283Z,72.50
2018-10-18T04:23:59.770Z,68.90
2018-10-18T04:26:28.212Z,71.63
2018-10-18T04:28:56.679Z,58.13
2018-10-18T04:31:25.039Z,60.93
2018-10-18T04:33:53.358Z,56.40
2018-10-18T04:36:21.722Z,51.63
2018-10-18T04:38:50.041Z,57.37
2018-10-18T04:41:18.480Z,55.50
2018-10-18T04:43:46.820Z,51.53
2018-10-18T04:46:15.170Z,61.87
2018-10-18T04:48:43.502Z,59.57
2018-10-18T04:51:11.876Z,54.67
2018-10-18T04:53:40.193Z,53.20
2018-10-18T04:56:08.579Z,52.40
2018-10-18T04:58:36.912Z,52.50
2018-10-18T05:01:05.566Z,50.30
2018-10-18T05:03:33.818Z,55.50
2018-10-18T05:06:03.859Z,58.93
2018-10-18T05:08:32.282Z,54.40
2018-10-18T05:11:00.651Z,52.30
2018-10-18T05:13:29.047Z,50.50
2018-10-18T05:15:57.457Z,50.73
2018-10-18T05:18:25.832Z,47.40
2018-10-18T05:20:54.242Z,47.50
2018-10-18T05:23:22.620Z,47.07
2018-10-18T05:25:51.477Z,44.80
2018-10-18T05:28:20.187Z,46.77
2018-10-18T05:30:48.743Z,44.87
2018-10-18T05:33:17.075Z,46.17
2018-10-18T05:35:45.368Z,44.00
2018-10-18T05:38:13.936Z,43.03
2018-10-18T05:40:42.282Z,42.30
2018-10-18T05:43:10.710Z,41.53
2018-10-18T05:45:39.001Z,39.67
2018-10-18T05:48:07.431Z,41.00
2018-10-18T05:50:35.769Z,40.93
2018-10-18T05:53:04.203Z,42.10
2018-10-18T05:55:32.534Z,39.27
2018-10-18T05:58:00.887Z,42.67
2018-10-18T06:00:29.195Z,41.53
2018-10-18T06:02:57.524Z,43.73
2018-10-18T06:05:25.874Z,42.03
2018-10-18T06:07:54.239Z,40.90
2018-10-18T06:10:34.137Z,37.53
2018-10-18T06:13:02.881Z,39.20
2018-10-18T06:15:32.026Z,39.00
2018-10-18T06:18:00.400Z,37.77
2018-10-18T06:20:28.912Z,37.03
2018-10-18T06:22:57.372Z,37.70
2018-10-18T06:25:25.598Z,39.53
2018-10-18T06:27:53.948Z,36.77
2018-10-18T06:30:22.265Z,37.30
2018-10-18T06:32:50.592Z,35.43
2018-10-18T06:35:18.943Z,36.50
2018-10-18T06:37:47.269Z,37.87
2018-10-18T06:40:17.045Z,35.63
2018-10-18T06:42:45.377Z,34.60
2018-10-18T06:45:16.044Z,35.23
2018-10-18T06:47:44.845Z,35.43
2018-10-18T06:50:18.472Z,36.57
2018-10-18T06:52:46.808Z,33.27
2018-10-18T06:55:15.272Z,35.37
2018-10-18T06:57:44.171Z,34.80
2018-10-18T07:00:14.702Z,34.73
2018-10-18T07:02:43.606Z,32.97
2018-10-18T07:05:13.099Z,34.07
2018-10-18T07:07:41.975Z,31.40
2018-10-18T07:10:15.429Z,32.27
2018-10-18T07:12:43.811Z,33.17
2018-10-18T07:15:13.167Z,31.80
2018-10-18T07:17:42.399Z,32.10
2018-10-18T07:20:11.131Z,33.90
2018-10-18T07:22:39.940Z,30.17
2018-10-18T07:25:10.621Z,32.73
2018-10-18T07:27:39.411Z,31.40
2018-10-18T07:30:08.772Z,29.97
2018-10-18T07:32:37.138Z,30.23
2018-10-18T07:35:06.366Z,34.57
2018-10-18T07:37:34.732Z,30.53
2018-10-18T07:40:03.196Z,30.47
2018-10-18T07:42:31.516Z,31.57
2018-10-18T07:44:59.906Z,30.03
2018-10-18T07:47:28.232Z,29.20
2018-10-18T07:49:56.577Z,29.10
2018-10-18T07:52:24.892Z,29.27
2018-10-18T07:54:53.281Z,29.87
2018-10-18T07:57:21.654Z,28.90
2018-10-18T07:59:50.048Z,30.93
2018-10-18T08:02:18.535Z,29.07
2018-10-18T08:04:46.900Z,27.63
2018-10-18T08:07:15.321Z,28.63
2018-10-18T08:09:43.650Z,27.17
2018-10-18T08:12:12.013Z,28.33
2018-10-18T08:14:40.452Z,27.77
2018-10-18T08:17:08.858Z,27.73
2018-10-18T08:19:37.229Z,28.43
2018-10-18T08:22:05.749Z,27.53
2018-10-18T08:24:34.168Z,26.60
2018-10-18T08:27:02.608Z,26.83
2018-10-18T08:29:30.985Z,26.73
2018-10-18T08:31:59.608Z,26.43
2018-10-18T08:34:27.935Z,26.57
2018-10-18T08:36:56.284Z,26.03
2018-10-18T08:39:24.637Z,26.27
2018-10-18T08:41:52.959Z,24.83
2018-10-18T08:44:21.350Z,24.57
2018-10-18T08:46:49.668Z,24.63
2018-10-18T08:49:18.122Z,23.20
2018-10-18T08:51:46.506Z,25.43
2018-10-18T08:54:14.832Z,28.17
2018-10-18T08:56:43.164Z,25.70
2018-10-18T08:59:11.512Z,25.17
2018-10-18T09:01:39.901Z,27.13
2018-10-18T09:04:08.316Z,28.53
2018-10-18T09:06:37.046Z,27.60
2018-10-18T09:09:07.619Z,28.07
2018-10-18T09:11:36.055Z,26.63
2018-10-18T09:14:04.406Z,27.77
2018-10-18T09:16:32.845Z,27.07
2018-10-18T09:19:01.206Z,26.67
2018-10-18T09:21:29.539Z,25.17
2018-10-18T09:23:57.993Z,25.43
2018-10-18T09:26:26.325Z,27.97
2018-10-18T09:28:54.685Z,28.30
2018-10-18T09:31:23.077Z,29.17
2018-10-18T09:33:51.458Z,30.37
2018-10-18T09:36:19.826Z,30.23
2018-10-18T09:38:48.423Z,30.67
2018-10-18T09:41:16.791Z,29.97
2018-10-18T09:43:45.169Z,32.93
2018-10-18T09:46:13.530Z,33.57
2018-10-18T09:48:42.026Z,33.23
2018-10-18T09:51:10.360Z,34.10
2018-10-18T09:53:38.760Z,31.37
2018-10-18T09:56:07.239Z,31.10
2018-10-18T09:58:35.814Z,33.87
2018-10-18T10:01:09.736Z,32.50
2018-10-18T10:03:38.112Z,33.07
2018-10-18T10:06:06.925Z,34.17
2018-10-18T10:08:35.434Z,34.23
2018-10-18T10:11:03.820Z,32.70
2018-10-18T10:13:32.430Z,33.63
2018-10-18T10:16:00.867Z,33.87
2018-10-18T10:18:29.265Z,33.27
2018-10-18T10:20:57.638Z,32.43
2018-10-18T10:23:26.224Z,32.80
2018-10-18T10:25:54.594Z,31.73
2018-10-18T10:28:22.975Z,29.93
2018-10-18T10:30:51.343Z,30.37
2018-10-18T10:33:19.892Z,31.20
2018-10-18T10:35:48.175Z,29.30
2018-10-18T10:38:16.553Z,29.10
2018-10-18T10:40:45.003Z,28.10
2018-10-18T10:43:13.351Z,29.13
2018-10-18T10:45:41.782Z,29.40
2018-10-18T10:48:10.159Z,27.07
2018-10-18T10:50:38.463Z,27.50
2018-10-18T10:53:06.844Z,27.67
2018-10-18T10:55:35.176Z,28.30
2018-10-18T10:58:03.581Z,26.07
2018-10-18T11:01:17.238Z,25.73
2018-10-18T11:03:45.938Z,24.83
2018-10-18T11:06:14.590Z,25.07
2018-10-18T11:08:42.960Z,25.07
2018-10-18T11:11:11.988Z,24.87
2018-10-18T11:13:40.445Z,25.67
2018-10-18T11:16:09.016Z,26.73
2018-10-18T11:18:38.382Z,28.00
2018-10-18T11:21:07.994Z,27.80
2018-10-18T11:23:36.638Z,33.73
2018-10-18T11:26:05.219Z,29.73
2018-10-18T11:28:33.805Z,29.87
2018-10-18T11:31:02.281Z,28.73
2018-10-18T11:33:30.703Z,29.33
2018-10-18T11:35:59.075Z,30.80
2018-10-18T11:38:32.402Z,30.10
2018-10-18T11:41:00.859Z,28.87
2018-10-18T11:43:29.293Z,28.37
2018-10-18T11:45:57.627Z,27.53
2018-10-18T11:48:26.014Z,26.40
2018-10-18T11:50:54.403Z,26.17
2018-10-18T11:53:22.834Z,25.40
2018-10-18T11:55:51.119Z,19.40
2018-10-18T11:58:19.430Z,19.57
2018-10-18T12:00:47.941Z,20.90
2018-10-18T12:03:16.263Z,20.70
2018-10-18T12:05:44.689Z,19.17
2018-10-18T12:08:13.293Z,18.30
2018-10-18T12:10:41.491Z,17.67
2018-10-18T12:13:09.986Z,19.27
2018-10-18T12:15:38.406Z,17.20
2018-10-18T12:18:06.756Z,17.30
2018-10-18T12:20:35.312Z,17.27
2018-10-18T12:23:03.701Z,20.10
2018-10-18T12:25:32.044Z,15.90
2018-10-18T12:28:00.424Z,16.70
2018-10-18T12:30:29.823Z,14.73
2018-10-18T12:32:58.171Z,14.17
2018-10-18T12:35:26.517Z,14.20
2018-10-18T12:37:54.891Z,15.17
2018-10-18T12:40:23.426Z,16.27
2018-10-18T12:42:52.061Z,14.63
2018-10-18T12:45:20.446Z,14.60
2018-10-18T12:47:52.205Z,15.17
2018-10-18T12:50:20.525Z,14.07
2018-10-18T12:52:48.826Z,14.13
2018-10-18T12:55:17.222Z,13.37
2018-10-18T12:57:45.632Z,12.37
2018-10-18T13:00:14.135Z,11.93
2018-10-18T13:02:42.368Z,11.50
2018-10-18T13:05:11.583Z,11.50
2018-10-18T13:07:39.962Z,10.53
2018-10-18T13:10:10.324Z,10.37
2018-10-18T13:12:38.810Z,10.10
2018-10-18T13:15:08.544Z,10.70
2018-10-18T13:17:36.912Z,9.93
2018-10-18T13:20:06.241Z,9.43
2018-10-18T13:22:34.731Z,9.57
2018-10-18T13:25:03.057Z,10.73
2018-10-18T13:27:31.440Z,9.60
2018-10-18T13:29:59.826Z,9.23
2018-10-18T13:32:28.107Z,9.53
2018-10-18T13:34:56.622Z,9.07
2018-10-18T13:37:24.907Z,8.60
2018-10-18T13:39:53.261Z,8.30
2018-10-18T13:42:21.564Z,8.33
2018-10-18T13:44:49.937Z,8.63
2018-10-18T13:47:18.256Z,7.93
2018-10-18T13:49:46.574Z,8.83
2018-10-18T13:52:15.023Z,7.50
2018-10-18T13:54:43.440Z,8.37
2018-10-18T13:57:11.791Z,8.90
2018-10-18T13:59:51.360Z,6.80
2018-10-18T14:02:19.713Z,8.00
2018-10-18T14:04:54.693Z,7.03
2018-10-18T14:07:23.049Z,7.53
2018-10-18T14:09:51.557Z,8.80
2018-10-18T14:12:19.983Z,6.83
2018-10-18T14:14:48.365Z,9.17
2018-10-18T14:17:16.844Z,10.23
2018-10-18T14:19:45.085Z,8.07
2018-10-18T14:22:13.415Z,7.13
2018-10-18T14:24:41.712Z,7.83
2018-10-18T14:27:10.232Z,8.03
2018-10-18T14:29:38.708Z,8.33
2018-10-18T14:32:07.515Z,7.40
2018-10-18T14:34:36.111Z,8.17
2018-10-18T14:37:04.688Z,8.27
2018-10-18T14:39:32.999Z,8.07
2018-10-18T14:42:01.331Z,9.13
2018-10-18T14:44:29.771Z,9.17
2018-10-18T14:46:58.195Z,8.87
2018-10-18T14:49:26.606Z,8.00
2018-10-18T14:51:54.947Z,7.47
2018-10-18T14:54:23.659Z,10.00
2018-10-18T14:56:52.004Z,9.57
2018-10-18T14:59:20.594Z,11.53
2018-10-18T15:01:49.291Z,13.00
2018-10-18T15:04:17.661Z,11.13
2018-10-18T15:06:46.040Z,10.57
2018-10-18T15:09:14.445Z,11.30
2018-10-18T15:11:42.810Z,11.10
2018-10-18T15:14:11.126Z,9.80
2018-10-18T15:16:39.431Z,12.63
2018-10-18T15:19:07.739Z,11.87
2018-10-18T15:21:36.151Z,11.13
2018-10-18T15:24:04.835Z,11.33
2018-10-18T15:26:33.429Z,12.73
2018-10-18T15:29:01.600Z,12.23
2018-10-18T15:31:29.899Z,12.70
2018-10-18T15:33:58.326Z,12.37
2018-10-18T15:36:26.651Z,12.60
2018-10-18T15:38:55.161Z,12.77
2018-10-18T15:41:23.297Z,13.67
2018-10-18T15:43:52.602Z,13.03
2018-10-18T15:46:21.102Z,14.23
2018-10-18T15:48:49.408Z,14.93
2018-10-18T15:51:17.824Z,13.07
2018-10-18T15:53:46.043Z,12.83
2018-10-18T15:56:14.404Z,15.30
2018-10-18T15:58:42.690Z,12.90
2018-10-18T16:01:10.997Z,12.60
2018-10-18T16:03:39.295Z,12.00
2018-10-18T16:06:07.711Z,11.50
2018-10-18T16:08:36.298Z,13.80
2018-10-18T16:11:04.820Z,10.77
2018-10-18T16:13:33.479Z,11.50
2018-10-18T16:16:01.724Z,28.97
2018-10-18T16:18:30.036Z,13.20
2018-10-18T16:20:58.509Z,14.40
2018-10-18T16:23:26.820Z,18.10
2018-10-18T16:25:55.346Z,9.73
2018-10-18T16:28:23.613Z,9.47
2018-10-18T16:30:51.993Z,11.67
2018-10-18T16:33:20.331Z,10.80
2018-10-18T16:35:49.232Z,10.33
2018-10-18T16:38:17.929Z,11.23
2018-10-18T16:40:46.165Z,11.80
2018-10-18T16:43:14.610Z,13.23
2018-10-18T16:45:42.891Z,9.30
2018-10-18T16:48:11.600Z,11.43
2018-10-18T16:50:40.103Z,9.57
2018-10-18T16:53:08.620Z,9.17
2018-10-18T16:55:37.063Z,8.90
2018-10-18T16:58:05.509Z,9.67
2018-10-18T17:00:33.834Z,8.97
2018-10-18T17:03:02.305Z,9.40
2018-10-18T17:05:30.588Z,9.83
2018-10-18T17:07:59.169Z,11.67
2018-10-18T17:10:27.788Z,11.63
2018-10-18T17:12:56.220Z,11.43
2018-10-18T17:15:24.578Z,12.40
2018-10-18T17:17:53.059Z,12.53
2018-10-18T17:20:21.597Z,11.93
2018-10-18T17:22:50.180Z,13.30
2018-10-18T17:25:18.627Z,12.03
2018-10-18T17:27:47.116Z,12.57
2018-10-18T17:30:15.628Z,12.27
2018-10-18T17:32:44.000Z,12.97
2018-10-18T17:35:12.342Z,13.90
2018-10-18T17:37:40.623Z,14.20
2018-10-18T17:40:09.813Z,15.93
2018-10-18T17:42:38.473Z,16.45
2018-10-18T17:45:08.345Z,14.67
2018-10-18T17:47:36.772Z,13.03
2018-10-18T17:50:05.651Z,11.97
2018-10-18T17:52:34.884Z,13.80
2018-10-18T17:55:03.498Z,18.87
2018-10-18T17:57:31.895Z,13.57
2018-10-18T18:00:00.370Z,17.53
2018-10-18T18:02:28.637Z,14.43
2018-10-18T18:04:56.995Z,29.67
2018-10-18T18:07:25.454Z,17.90
2018-10-18T18:09:53.863Z,14.70
2018-10-18T18:12:22.191Z,18.30
2018-10-18T18:14:50.555Z,16.97
2018-10-18T18:17:19.052Z,15.30
2018-10-18T18:19:47.401Z,15.37
2018-10-18T18:22:15.759Z,16.07
2018-10-18T18:24:44.059Z,15.57
2018-10-18T18:27:12.371Z,19.10
2018-10-18T18:29:40.740Z,20.13
2018-10-18T18:32:09.441Z,22.40
2018-10-18T18:34:39.621Z,24.37
2018-10-18T18:37:13.067Z,16.77
2018-10-18T18:39:45.735Z,20.50
2018-10-18T18:42:15.539Z,17.63
2018-10-18T18:44:46.336Z,17.77
2018-10-18T18:47:17.863Z,19.77
2018-10-18T18:49:46.150Z,25.00
2018-10-18T18:52:14.595Z,27.00
2018-10-18T18:54:45.031Z,25.97
2018-10-18T18:57:13.463Z,24.93
2018-10-18T18:59:41.732Z,24.70
2018-10-18T19:02:10.046Z,23.00
2018-10-18T19:04:39.418Z,22.47
2018-10-18T19:07:07.735Z,21.00
2018-10-18T19:09:36.112Z,22.30
2018-10-18T19:12:04.656Z,25.30
2018-10-18T19:14:33.092Z,28.20
2018-10-18T19:17:01.602Z,27.07
2018-10-18T19:19:29.881Z,26.43
2018-10-18T19:21:58.319Z,27.80
2018-10-18T19:24:26.640Z,28.30
2018-10-18T19:26:55.167Z,23.77
2018-10-18T19:29:23.816Z,24.93
2018-10-18T19:31:52.320Z,23.80
2018-10-18T19:34:20.744Z,23.57
2018-10-18T19:36:50.493Z,27.53
2018-10-18T19:39:18.822Z,25.20
2018-10-18T19:41:47.337Z,24.73
2018-10-18T19:44:15.692Z,27.20
2018-10-18T19:46:44.079Z,24.73
2018-10-18T19:49:12.564Z,28.90
2018-10-18T19:51:40.859Z,28.53
2018-10-18T19:54:09.152Z,30.50
2018-10-18T19:56:37.525Z,27.47
2018-10-18T19:59:06.303Z,29.50
2018-10-18T20:01:34.690Z,26.73
2018-10-18T20:04:03.031Z,25.50
2018-10-18T20:06:32.203Z,25.07
2018-10-18T20:09:00.525Z,25.40
2018-10-18T20:11:28.855Z,24.73
2018-10-18T20:13:57.287Z,26.53
2018-10-18T20:16:25.640Z,25.10
2018-10-18T20:18:53.992Z,25.00
2018-10-18T20:21:22.415Z,23.90
2018-10-18T20:23:50.719Z,22.73
2018-10-18T20:26:19.316Z,22.00
2018-10-18T20:28:47.406Z,23.57
2018-10-18T20:31:15.683Z,22.80
2018-10-18T20:33:44.286Z,23.47
2018-10-18T20:36:21.915Z,23.13
2018-10-18T20:38:50.211Z,23.40
2018-10-18T20:41:18.733Z,20.67
2018-10-18T20:43:47.147Z,21.63
2018-10-18T20:46:15.916Z,21.70
2018-10-18T20:48:44.258Z,22.10
2018-10-18T20:51:12.675Z,21.93
2018-10-18T20:53:40.977Z,23.37
2018-10-18T20:56:09.317Z,22.10
2018-10-18T20:58:37.764Z,21.23
2018-10-18T21:01:06.914Z,21.50
2018-10-18T21:03:35.853Z,23.63
2018-10-18T21:06:04.636Z,23.23
2018-10-18T21:08:32.859Z,23.10
2018-10-18T21:11:01.162Z,23.53
2018-10-18T21:13:29.508Z,24.50
2018-10-18T21:15:57.829Z,24.97
2018-10-18T21:18:26.137Z,25.43
2018-10-18T21:20:54.493Z,26.13
2018-10-18T21:23:22.913Z,24.80
2018-10-18T21:25:51.322Z,25.53
2018-10-18T21:28:19.698Z,25.73
2018-10-18T21:30:48.072Z,26.37
2018-10-18T21:33:16.389Z,28.77
2018-10-18T21:35:44.837Z,24.13
2018-10-18T21:38:13.171Z,25.00
2018-10-18T21:40:41.451Z,24.50
2018-10-18T21:43:09.752Z,26.43
2018-10-18T21:45:38.039Z,26.33
2018-10-18T21:48:06.455Z,24.80
2018-10-18T21:50:34.756Z,23.90
2018-10-18T21:53:03.122Z,25.60
2018-10-18T21:55:31.424Z,26.43
2018-10-18T21:57:59.845Z,25.80
2018-10-18T22:00:29.256Z,26.50
2018-10-18T22:02:57.570Z,24.60
2018-10-18T22:05:25.916Z,25.50
2018-10-18T22:07:54.322Z,25.53
2018-10-18T22:10:22.620Z,25.50
2018-10-18T22:12:50.961Z,24.33
2018-10-18T22:15:19.274Z,25.63
2018-10-18T22:17:47.589Z,24.47
2018-10-18T22:20:15.970Z,25.17
2018-10-18T22:22:44.251Z,26.33
2018-10-18T22:25:12.522Z,26.57
2018-10-18T22:27:40.850Z,25.67
2018-10-18T22:30:09.340Z,25.13
2018-10-18T22:32:37.724Z,26.10
2018-10-18T22:35:06.402Z,25.40
2018-10-18T22:37:34.691Z,25.03
2018-10-18T22:40:03.049Z,25.70
2018-10-18T22:42:31.418Z,24.07
2018-10-18T22:44:59.710Z,25.23
2018-10-18T22:47:28.012Z,25.80
2018-10-18T22:49:56.384Z,26.73
2018-10-18T22:52:24.719Z,25.63
2018-10-18T22:54:53.016Z,25.17
2018-10-18T22:57:21.351Z,24.93
2018-10-18T22:59:49.648Z,24.00
2018-10-18T23:02:17.932Z,25.33
2018-10-18T23:04:46.360Z,25.73
2018-10-18T23:07:14.704Z,24.87
2018-10-18T23:09:43.176Z,25.20
2018-10-18T23:12:11.508Z,23.73
2018-10-18T23:14:39.791Z,24.27
2018-10-18T23:17:08.146Z,25.47
2018-10-18T23:19:36.403Z,25.53
2018-10-18T23:22:06.737Z,25.73
2018-10-18T23:24:36.827Z,24.90
2018-10-18T23:27:05.510Z,24.67
2018-10-18T23:29:33.771Z,24.77
2018-10-18T23:32:02.090Z,24.70
2018-10-18T23:34:30.509Z,25.03
2018-10-18T23:36:59.126Z,25.77
2018-10-18T23:39:27.442Z,25.37
2018-10-18T23:41:55.765Z,25.30
2018-10-18T23:44:24.071Z,25.13
2018-10-18T23:46:52.450Z,25.13
2018-10-18T23:49:20.682Z,26.00
2018-10-18T23:51:49.051Z,24.70
2018-10-18T23:54:17.302Z,25.07
2018-10-18T23:56:45.596Z,24.37
2018-10-18T23:59:13.939Z,23.27
